Página principal
METAR-TAF:

METAR-TAF

Aeroportos :

Aeroporto de Sevilha

Sevilha, Espanha

latitude: 37-25N, longitude: 005-54W, altura: 34 m

Observação actual do tempo

O boletim foi feito há 18 minutos, às 11:00 UTC
Vento 9 kt de este com rajadas de 20 kt, variando entre nordeste e su-sudeste
Temperatura 34°C
Humidade 34%
Pressão 1015 hPa
Visibilidade 10 km ou mais
sem nuvens abaixo de 1500 metros e sem cumulonimbus

METAR: LEZL 191100Z 09009G20KT 050V150 CAVOK 34/16 Q1015 NOSIG

Hora: 13:18 (11:18 UTC)

Previsão

O boletim foi feito há 3 horas e 18 minutos, às 08:00 UTC
Previsão válida de 19 às 09 UTC a 20 às 09 UTC
Vento 9 kt de este
Visibilidade 10 km ou mais
sem nuvens abaixo de 1500 metros e sem cumulonimbus

TAF: LEZL 190800Z 1909/2009 09009KT CAVOK TX39/1915Z TN24/2005Z

Observações e previsões do tempo de mais de 4000 aeroportos (mensagens METAR e TAF).

As estações disponíveis são os pontos amarelos e vermelhos sobre o mapa.

Mova o rato sobre o mapa para ver o nome da estação.

Depois clique no ponto para visualizar as observações e previsões meteorológicas.

Para alterar o mapa : clique nos botões verdes com uma cruz preta para aumentar o zoom; no botão verde com uma pitada de zoom; ou nas setas verdes para mapas adjacentes.


METAR-TAF: